Time;durP1;ratioP1;P1;durP2;ratioP2;P2;SDS_P1;SDS_P2;PMS_P1;PMS_P2;Temp;Humidity;BMP_temperature;BMP_pressure;BME280_temperature;BME280_humidity;BME280_pressure;Samples;Min_cycle;Max_cycle;Signal;HPM_P1;HPM_P2
2022/02/09 00:00:06;;;;;;;24.05;19.00;;;;;;;-2.06;94.48;97194.88;5078652;28;20020;-54
2022/02/09 00:02:41;;;;;;;23.67;18.60;;;;;;;-2.05;94.98;97194.88;5081763;28;20039;-55
2022/02/09 00:05:22;;;;;;;23.00;19.03;;;;;;;-2.04;94.77;97191.41;5079981;28;20082;-55
2022/02/09 00:08:00;;;;;;;18.88;16.40;;;;;;;-2.01;94.63;97193.06;5078919;28;20826;-54
2022/02/09 00:10:28;;;;;;;16.95;15.00;;;;;;;-2.04;94.93;97191.41;5076491;28;20035;-55
2022/02/09 00:15:55;;;;;;;21.52;14.90;;;;;;;-2.04;94.93;97187.97;5079808;28;20419;-53
2022/02/09 00:34:36;;;;;;;14.20;12.60;;;;;;;-2.11;95.81;97184.63;5072131;28;20027;-58
2022/02/09 00:40:18;;;;;;;14.77;10.65;;;;;;;-2.16;95.79;97178.72;5070470;28;20036;-58
2022/02/09 00:43:10;;;;;;;13.25;9.57;;;;;;;-2.19;95.60;97179.63;5072952;28;20027;-55
2022/02/09 01:56:31;;;;;;;9.32;6.60;;;;;;;-2.44;95.32;97186.94;5077444;28;20047;-56
2022/02/09 01:58:57;;;;;;;8.25;6.30;;;;;;;-2.48;96.32;97185.28;5071463;28;20025;-53
2022/02/09 02:01:23;;;;;;;11.45;6.90;;;;;;;-2.55;96.47;97181.09;5075532;28;20465;-54
2022/02/09 02:03:49;;;;;;;9.30;6.93;;;;;;;-2.53;96.21;97181.94;5070384;28;20107;-56
2022/02/09 02:06:16;;;;;;;8.63;6.05;;;;;;;-2.57;96.05;97178.53;5079225;28;20114;-57
2022/02/09 02:08:44;;;;;;;8.63;6.43;;;;;;;-2.56;96.05;97174.22;5073785;28;20538;-55
2022/02/09 02:11:23;;;;;;;10.65;6.65;;;;;;;-2.57;96.79;97172.53;5072774;28;20073;-57
2022/02/09 02:18:56;;;;;;;7.10;6.10;;;;;;;-2.54;95.97;97167.31;5072478;28;20082;-53
2022/02/09 02:26:57;;;;;;;7.43;6.05;;;;;;;-2.64;96.34;97182.09;5072673;28;20040;-56
2022/02/09 02:57:26;;;;;;;6.07;5.35;;;;;;;-2.82;96.57;97168.63;5077889;28;20035;-53
2022/02/09 03:13:09;;;;;;;5.20;4.45;;;;;;;-2.97;96.74;97153.38;5071895;28;20044;-56
2022/02/09 03:15:52;;;;;;;5.53;4.85;;;;;;;-2.97;97.43;97155.94;5072832;28;20024;-57
2022/02/09 03:42:28;;;;;;;4.50;4.10;;;;;;;-2.96;97.32;97145.63;5077687;28;20089;-54
2022/02/09 03:53:03;;;;;;;4.90;4.50;;;;;;;-3.04;97.63;97138.00;5075788;28;20078;-57
2022/02/09 03:55:48;;;;;;;4.57;4.20;;;;;;;-3.05;98.05;97136.31;5073705;28;20551;-56
2022/02/09 03:58:15;;;;;;;4.93;4.47;;;;;;;-3.07;98.73;97132.91;5070528;28;20155;-55
2022/02/09 04:00:42;;;;;;;5.38;4.60;;;;;;;-3.07;98.19;97140.63;5071071;28;20598;-56
2022/02/09 04:03:13;;;;;;;4.90;4.50;;;;;;;-3.08;97.50;97138.06;5076729;28;20032;-57
2022/02/09 04:05:39;;;;;;;4.47;4.03;;;;;;;-3.13;97.64;97132.13;5078790;28;20154;-58
2022/02/09 04:08:06;;;;;;;7.00;4.82;;;;;;;-3.08;97.73;97140.66;5075829;28;20035;-57
2022/02/09 04:10:40;;;;;;;7.10;4.60;;;;;;;-3.12;97.32;97141.56;5073116;28;20044;-54
2022/02/09 04:13:17;;;;;;;4.57;4.18;;;;;;;-3.17;97.27;97141.63;5069220;28;20407;-57
2022/02/09 04:37:21;;;;;;;5.32;4.78;;;;;;;-3.25;97.57;97135.75;5084706;28;20081;-56
2022/02/09 04:39:52;;;;;;;5.00;4.60;;;;;;;-3.25;98.71;97139.16;5084475;28;20492;-57
2022/02/09 04:43:10;;;;;;;4.82;4.43;;;;;;;-3.25;97.60;97139.16;5073135;28;20529;-55
2022/02/09 04:48:00;;;;;;;4.50;4.20;;;;;;;-3.29;97.48;97127.19;5081375;28;20098;-56
2022/02/09 04:51:17;;;;;;;4.50;4.07;;;;;;;-3.28;98.24;97128.91;5083064;28;20028;-57
2022/02/09 04:55:57;;;;;;;4.50;4.10;;;;;;;-3.28;98.34;97126.31;5079527;28;20078;-55
2022/02/09 04:58:42;;;;;;;5.25;4.85;;;;;;;-3.23;97.81;97116.81;5073143;28;20071;-56
2022/02/09 05:01:32;;;;;;;5.22;4.78;;;;;;;-3.25;99.27;97115.97;5084063;28;20028;-56
2022/02/09 05:23:00;;;;;;;9.35;6.03;;;;;;;-3.18;99.65;97115.03;5077692;28;20036;-57
2022/02/09 05:28:04;;;;;;;8.93;6.03;;;;;;;-3.18;100.00;97107.31;5081261;28;20396;-56
2022/02/09 05:30:30;;;;;;;11.23;6.88;;;;;;;-3.14;99.90;97117.56;5075849;28;20020;-56
2022/02/09 05:32:56;;;;;;;9.52;6.97;;;;;;;-3.19;99.48;97110.75;5077574;28;20519;-57
2022/02/09 05:35:22;;;;;;;12.43;6.50;;;;;;;-3.19;99.62;97113.34;5074960;28;20107;-56
2022/02/09 05:37:52;;;;;;;10.15;5.63;;;;;;;-3.18;100.00;97111.59;5080326;28;20589;-56
2022/02/09 05:40:18;;;;;;;12.18;6.80;;;;;;;-3.16;99.90;97112.41;5081861;28;20129;-55
2022/02/09 05:42:43;;;;;;;10.95;6.82;;;;;;;-3.17;99.16;97116.72;5084478;28;20115;-57
2022/02/09 05:45:11;;;;;;;13.30;9.32;;;;;;;-3.15;98.61;97119.28;5080877;28;20121;-57
2022/02/09 05:53:15;;;;;;;14.63;10.60;;;;;;;-3.31;98.36;97104.06;5077580;28;20139;-57
2022/02/09 05:58:13;;;;;;;13.73;9.13;;;;;;;-3.32;98.29;97096.34;5081892;28;20039;-57
2022/02/09 06:00:47;;;;;;;10.38;9.27;;;;;;;-3.24;97.71;97109.13;5086840;28;20577;-56
2022/02/09 06:03:13;;;;;;;12.00;9.45;;;;;;;-3.21;98.71;97117.63;5083154;28;20024;-58
2022/02/09 06:05:38;;;;;;;12.07;9.40;;;;;;;-3.22;98.20;97108.19;5081143;28;20028;-55
2022/02/09 06:08:04;;;;;;;13.38;9.55;;;;;;;-3.23;97.75;97111.66;5079639;28;20104;-56
2022/02/09 06:10:32;;;;;;;11.40;8.32;;;;;;;-3.26;98.12;97114.28;5086208;28;20036;-57
2022/02/09 06:20:58;;;;;;;10.73;9.52;;;;;;;-3.39;97.77;97113.59;5080587;28;20062;-56
2022/02/09 06:23:26;;;;;;;12.57;9.15;;;;;;;-3.41;99.41;97112.78;5087247;28;20099;-57
2022/02/09 06:25:52;;;;;;;9.80;8.80;;;;;;;-3.40;99.15;97111.06;5081682;28;20072;-58
2022/02/09 06:28:17;;;;;;;13.55;9.27;;;;;;;-3.41;99.07;97110.19;5087984;28;20052;-57
2022/02/09 06:30:43;;;;;;;9.57;8.50;;;;;;;-3.34;99.67;97118.69;5076879;28;20032;-56
2022/02/09 06:33:08;;;;;;;9.60;8.70;;;;;;;-3.29;99.76;97116.91;5083952;28;20471;-56
2022/02/09 06:35:34;;;;;;;10.50;8.65;;;;;;;-3.27;98.88;97112.56;5082157;28;20032;-58
2022/02/09 06:38:01;;;;;;;10.20;7.65;;;;;;;-3.23;99.88;97123.69;5084020;28;20034;-57
2022/02/09 06:40:27;;;;;;;11.52;8.07;;;;;;;-3.16;99.84;97117.56;5083501;28;20024;-52
2022/02/09 06:42:52;;;;;;;9.65;8.43;;;;;;;-3.20;99.54;97116.78;5081392;28;20479;-56
2022/02/09 06:45:25;;;;;;;7.85;7.15;;;;;;;-3.23;99.08;97126.28;5086744;28;20099;-57
2022/02/09 06:47:51;;;;;;;11.55;7.30;;;;;;;-3.28;99.62;97118.59;5074087;28;20491;-57
2022/02/09 06:52:48;;;;;;;8.88;6.43;;;;;;;-3.31;99.34;97124.66;5080360;28;20028;-56
2022/02/09 06:55:19;;;;;;;8.93;8.02;;;;;;;-3.29;100.00;97123.78;5073048;28;20020;-56
2022/02/09 07:00:16;;;;;;;9.00;8.20;;;;;;;-3.28;99.44;97126.31;5075547;28;20085;-56
2022/02/09 07:02:43;;;;;;;7.95;7.03;;;;;;;-3.29;99.85;97127.19;5076559;28;20027;-56
2022/02/09 07:05:09;;;;;;;8.60;7.57;;;;;;;-3.27;99.97;97130.59;5082667;28;20032;-56
2022/02/09 07:07:35;;;;;;;12.98;7.63;;;;;;;-3.25;99.08;97123.69;5081429;28;20036;-56
2022/02/09 07:10:00;;;;;;;9.13;8.20;;;;;;;-3.24;99.27;97127.97;5082481;28;20048;-55
2022/02/09 07:12:25;;;;;;;9.23;8.00;;;;;;;-3.25;99.05;97115.97;5070792;28;20024;-56
2022/02/09 07:14:53;;;;;;;10.70;9.02;;;;;;;-3.23;100.00;97121.13;5077796;28;20063;-56
2022/02/09 07:17:18;;;;;;;14.23;8.93;;;;;;;-3.18;99.63;97125.34;5067336;28;20036;-54
2022/02/09 07:19:51;;;;;;;14.55;9.32;;;;;;;-3.15;99.56;97123.59;5088210;28;20028;-55
2022/02/09 07:22:23;;;;;;;10.77;9.57;;;;;;;-3.15;100.00;97119.28;5083653;28;20031;-55
2022/02/09 07:24:49;;;;;;;12.57;10.02;;;;;;;-3.11;100.00;97120.09;5074099;28;20128;-55
2022/02/09 07:29:48;;;;;;;11.38;10.30;;;;;;;-3.06;99.97;97113.13;5077177;28;20059;-55
2022/02/09 07:32:14;;;;;;;14.27;12.15;;;;;;;-2.99;99.84;97113.91;5087498;28;20495;-54
2022/02/09 07:34:39;;;;;;;12.82;11.63;;;;;;;-2.94;99.26;97109.50;5086146;28;20059;-57
2022/02/09 07:37:04;;;;;;;14.25;12.82;;;;;;;-2.90;99.84;97112.03;5083928;28;20077;-55
2022/02/09 07:39:32;;;;;;;15.13;13.52;;;;;;;-2.83;100.00;97112.78;5088728;28;20067;-55
2022/02/09 07:41:57;;;;;;;14.73;13.23;;;;;;;-2.81;99.54;97113.59;5083988;28;20016;-55
2022/02/09 07:44:42;;;;;;;16.08;14.55;;;;;;;-2.80;100.00;97112.72;5086344;28;20403;-56
2022/02/09 07:47:23;;;;;;;18.40;16.53;;;;;;;-2.80;100.00;97111.88;5081477;28;20035;-56
2022/02/09 07:49:53;;;;;;;19.70;17.60;;;;;;;-2.78;99.81;97104.94;5080841;28;20028;-52
2022/02/09 07:52:24;;;;;;;20.55;18.40;;;;;;;-2.76;98.90;97109.22;5080896;28;20107;-54
2022/02/09 07:54:50;;;;;;;17.38;15.52;;;;;;;-2.75;98.59;97107.50;5082590;28;20551;-57
2022/02/09 07:57:16;;;;;;;21.88;18.13;;;;;;;-2.74;98.86;97104.06;5080862;28;20036;-55
2022/02/09 07:59:41;;;;;;;20.38;18.40;;;;;;;-2.72;99.14;97112.59;5086854;28;20530;-56
2022/02/09 08:02:06;;;;;;;24.45;21.85;;;;;;;-2.68;98.93;97114.25;5079271;28;20123;-57
2022/02/09 08:04:32;;;;;;;25.55;22.75;;;;;;;-2.66;98.68;97103.91;5084875;28;20536;-56
2022/02/09 08:06:57;;;;;;;23.50;21.00;;;;;;;-2.67;99.60;97103.06;5077655;28;20032;-57
2022/02/09 08:09:34;;;;;;;26.27;20.17;;;;;;;-2.68;99.58;97108.22;5082019;28;20032;-54
2022/02/09 08:20:39;;;;;;;17.30;15.45;;;;;;;-2.44;99.90;97099.22;5078012;28;20113;-55
2022/02/09 08:23:39;;;;;;;17.63;15.32;;;;;;;-2.44;99.29;97094.06;5084405;28;20028;-57
2022/02/09 08:29:01;;;;;;;15.10;13.57;;;;;;;-2.42;100.00;97094.06;5078053;28;20515;-55
2022/02/09 08:34:19;;;;;;;14.60;13.10;;;;;;;-2.39;100.00;97078.53;5056905;28;20062;-57
2022/02/09 08:36:44;;;;;;;15.73;12.73;;;;;;;-2.35;100.00;97075.84;5080737;28;20690;-55
2022/02/09 08:39:09;;;;;;;16.20;13.18;;;;;;;-2.29;100.00;97071.47;5084983;28;20024;-57
2022/02/09 08:41:36;;;;;;;15.02;13.18;;;;;;;-2.26;99.89;97068.81;5083945;28;20027;-56
2022/02/09 08:44:02;;;;;;;17.48;14.60;;;;;;;-2.20;99.52;97068.69;5083201;28;20056;-58
2022/02/09 08:46:28;;;;;;;15.00;12.80;;;;;;;-2.10;99.79;97069.38;5082139;28;20032;-56
2022/02/09 08:48:53;;;;;;;14.55;12.88;;;;;;;-1.68;100.00;97059.03;5078950;28;20036;-56
2022/02/09 08:51:22;;;;;;;17.52;12.40;;;;;;;-1.11;99.48;97062.06;5082294;28;20098;-59
2022/02/09 08:53:47;;;;;;;14.27;12.88;;;;;;;-0.52;99.22;97057.19;5082468;28;20016;-58
2022/02/09 08:56:13;;;;;;;14.45;13.05;;;;;;;-0.01;98.29;97061.84;5080843;28;20024;-60
2022/02/09 08:58:38;;;;;;;13.02;11.75;;;;;;;0.61;97.02;97060.94;5078193;28;20028;-59
2022/02/09 09:01:09;;;;;;;14.30;12.90;;;;;;;1.21;92.70;97060.75;5076365;28;20099;-59
2022/02/09 09:03:52;;;;;;;14.25;11.73;;;;;;;1.56;91.05;97063.94;5073092;28;20035;-60
2022/02/09 09:06:22;;;;;;;13.52;12.23;;;;;;;1.78;89.90;97060.59;5075147;28;20411;-58
2022/02/09 10:01:17;;;;;;;3.80;3.20;;;;;;;6.41;69.47;97042.91;5081530;28;20117;-50
2022/02/09 10:31:59;;;;;;;;;;;;;;;8.75;54.05;97023.22;5077632;28;20082;-48
2022/02/09 10:34:02;;;;;;;15.45;9.13;;;;;;;8.78;51.25;97015.16;5073499;28;20391;-49
2022/02/09 10:36:29;;;;;;;15.05;8.82;;;;;;;8.98;55.52;97015.66;5073400;28;20028;-50
2022/02/09 10:39:12;;;;;;;5.63;3.88;;;;;;;8.66;50.34;97008.91;5075243;28;20040;-48
2022/02/09 10:41:53;;;;;;;9.18;6.28;;;;;;;9.18;52.93;97016.97;5074420;28;20024;-49
2022/02/09 10:44:23;;;;;;;4.80;3.97;;;;;;;9.57;48.93;97006.53;5073015;28;20028;-49
2022/02/09 10:46:52;;;;;;;5.50;4.88;;;;;;;9.61;50.10;96997.47;5073085;28;20067;-50
2022/02/09 10:49:19;;;;;;;5.22;4.45;;;;;;;10.26;47.91;96993.03;5075746;28;20114;-48
2022/02/09 10:52:08;;;;;;;4.47;3.40;;;;;;;10.26;47.32;96995.66;5074821;28;20028;-48
2022/02/09 10:54:33;;;;;;;4.53;3.70;;;;;;;10.30;43.91;96991.03;5082471;28;20040;-47
2022/02/09 10:57:00;;;;;;;6.72;3.60;;;;;;;10.62;44.70;96992.34;5075237;28;20405;-47
2022/02/09 10:59:29;;;;;;;6.25;4.10;;;;;;;10.39;44.63;96997.44;5072283;28;20496;-46
2022/02/09 11:01:56;;;;;;;4.40;3.70;;;;;;;10.53;45.71;96983.31;5077074;28;20039;-49
2022/02/09 11:04:22;;;;;;;4.72;4.07;;;;;;;10.88;45.49;96980.75;5084348;28;20028;-48
2022/02/09 11:06:48;;;;;;;4.07;3.33;;;;;;;11.23;43.22;96981.75;5083819;28;20373;-46
2022/02/09 11:09:16;;;;;;;5.55;3.70;;;;;;;10.92;44.27;96980.53;5075718;28;20039;-48
2022/02/09 11:11:42;;;;;;;3.78;3.13;;;;;;;10.99;44.83;96972.06;5074700;28;20078;-47
2022/02/09 11:14:13;;;;;;;4.85;2.55;;;;;;;11.21;42.22;96974.94;5083497;28;20032;-46
2022/02/09 11:16:41;;;;;;;2.20;2.00;;;;;;;11.17;41.98;96972.53;5082355;28;20051;-45
2022/02/09 11:19:07;;;;;;;2.55;2.35;;;;;;;10.97;41.57;96966.09;5079269;28;20438;-46
2022/02/09 11:21:37;;;;;;;2.50;2.30;;;;;;;11.27;40.60;96966.56;5083266;28;20143;-47
2022/02/09 11:24:14;;;;;;;2.30;2.10;;;;;;;10.87;41.02;96965.91;5083870;28;20067;-47
2022/02/09 11:27:05;;;;;;;2.20;1.92;;;;;;;11.25;41.22;96965.84;5074489;28;20040;-49
2022/02/09 11:32:07;;;;;;;3.92;2.08;;;;;;;12.03;40.40;96947.63;5082007;28;20484;-46
2022/02/09 11:37:28;;;;;;;1.85;1.75;;;;;;;11.88;39.95;96944.38;5072916;28;20083;-44
2022/02/09 11:39:57;;;;;;;2.65;2.45;;;;;;;11.49;39.05;96938.56;5073251;28;20054;-44
2022/02/09 11:42:48;;;;;;;2.58;2.38;;;;;;;11.50;40.55;96934.97;5077527;28;20024;-48
2022/02/09 12:10:23;;;;;;;2.47;2.25;;;;;;;13.60;36.08;96884.78;5031121;28;20155;-47
2022/02/09 12:13:00;;;;;;;4.53;2.47;;;;;;;13.75;36.70;96883.44;5069110;28;20102;-47
2022/02/09 12:16:33;;;;;;;2.78;2.30;;;;;;;13.58;37.66;96882.25;5081852;28;20115;-45
2022/02/09 12:18:31;;;;;;;2.42;2.17;;;;;;;13.48;36.01;96886.63;5073312;28;20052;-47
2022/02/09 12:21:14;;;;;;;5.20;2.72;;;;;;;12.82;36.88;96885.03;5079539;28;20511;-47
2022/02/09 12:23:41;;;;;;;5.18;3.00;;;;;;;12.53;37.58;96881.19;5083080;28;20023;-47
2022/02/09 12:26:09;;;;;;;3.95;2.55;;;;;;;12.20;37.19;96882.94;5084284;28;20067;-49
2022/02/09 12:28:38;;;;;;;4.05;2.60;;;;;;;11.98;38.13;96881.16;5076631;28;20434;-49
2022/02/09 12:31:12;;;;;;;3.38;3.08;;;;;;;12.04;38.77;96878.88;5085350;28;20039;-45
2022/02/09 12:33:51;;;;;;;2.70;2.50;;;;;;;12.12;38.16;96875.63;5071689;28;20441;-49
2022/02/09 12:36:19;;;;;;;3.00;2.80;;;;;;;12.19;38.18;96873.34;5070385;28;20474;-48
2022/02/09 12:38:46;;;;;;;3.10;2.90;;;;;;;11.81;36.99;96872.75;5078058;28;20028;-47
2022/02/09 12:41:12;;;;;;;3.28;3.00;;;;;;;11.54;38.86;96870.47;5084406;28;20028;-45
2022/02/09 12:43:43;;;;;;;4.75;3.80;;;;;;;11.45;40.84;96870.25;5082247;28;20073;-44
2022/02/09 12:46:08;;;;;;;7.30;4.22;;;;;;;11.74;41.16;96869.75;5081056;28;20446;-48
2022/02/09 12:48:34;;;;;;;7.15;4.22;;;;;;;11.75;41.13;96875.91;5086360;28;20034;-47
2022/02/09 12:50:59;;;;;;;3.53;3.22;;;;;;;11.46;41.48;96858.72;5085502;28;20031;-46
2022/02/09 12:53:26;;;;;;;3.60;3.25;;;;;;;11.59;41.29;96855.97;5083221;28;20385;-45
2022/02/09 12:55:57;;;;;;;4.65;3.33;;;;;;;11.91;40.29;96854.41;5075729;28;20074;-46
2022/02/09 12:58:22;;;;;;;5.00;2.97;;;;;;;11.65;41.03;96844.13;5082187;28;20107;-44
2022/02/09 13:00:48;;;;;;;5.10;2.95;;;;;;;11.74;41.81;96848.66;5082241;28;20110;-47
2022/02/09 13:03:19;;;;;;;4.95;3.17;;;;;;;11.84;40.62;96847.94;5084980;28;20020;-50
2022/02/09 13:05:49;;;;;;;3.45;3.13;;;;;;;11.79;40.54;96850.94;5072172;28;20124;-45
2022/02/09 13:08:23;;;;;;;4.05;3.40;;;;;;;11.58;41.21;96858.72;5083346;28;20039;-47
2022/02/09 13:10:49;;;;;;;4.13;3.22;;;;;;;11.86;40.55;96848.66;5078014;28;20025;-48
2022/02/09 13:13:24;;;;;;;5.60;3.00;;;;;;;11.78;40.25;96853.69;5085618;28;20099;-50
2022/02/09 13:16:06;;;;;;;3.40;2.95;;;;;;;11.52;40.78;96848.66;5082954;28;20039;-49
2022/02/09 14:56:11;;;;;;;5.82;2.90;;;;;;;13.00;36.61;96787.53;5071775;28;20035;-46
2022/02/09 14:58:41;;;;;;;4.20;3.28;;;;;;;12.85;37.03;96787.84;5077631;28;20037;-48
2022/02/09 15:01:18;;;;;;;3.42;3.15;;;;;;;12.69;37.29;96779.53;5077034;28;20466;-49
2022/02/09 15:04:13;;;;;;;3.80;3.50;;;;;;;12.48;37.94;96782.16;5073505;28;20056;-47
2022/02/09 15:09:20;;;;;;;6.30;3.00;;;;;;;12.29;38.29;96783.69;5072907;28;20094;-45
2022/02/09 15:22:34;;;;;;;3.78;3.47;;;;;;;12.47;38.80;96783.94;5076909;28;20541;-51
2022/02/09 15:25:01;;;;;;;4.75;3.40;;;;;;;12.14;39.16;96783.13;5073541;28;20025;-50
2022/02/09 15:27:27;;;;;;;4.03;3.33;;;;;;;12.16;39.19;96794.41;5073765;28;20107;-46
2022/02/09 15:29:53;;;;;;;5.13;4.18;;;;;;;11.65;41.16;96783.44;5077969;28;20135;-49
2022/02/09 15:34:48;;;;;;;3.88;3.42;;;;;;;11.54;40.94;96786.09;5071809;28;20518;-44
2022/02/09 15:37:21;;;;;;;4.72;3.85;;;;;;;11.48;40.77;96789.22;5072158;28;20099;-45
2022/02/09 15:39:51;;;;;;;5.25;3.60;;;;;;;11.22;41.74;96784.19;5078960;28;20036;-48
2022/02/09 16:22:33;;;;;;;29.27;18.63;;;;;;;8.03;55.69;96764.47;5077814;28;20029;-49
2022/02/09 16:25:18;;;;;;;23.13;18.85;;;;;;;7.87;56.24;96762.81;5080133;28;20033;-47
2022/02/09 16:46:33;;;;;;;19.90;12.57;;;;;;;6.56;61.11;96771.69;5070823;28;20044;-44
2022/02/09 16:51:38;;;;;;;14.90;12.25;;;;;;;6.00;64.29;96775.69;5075400;28;20036;-45
2022/02/09 16:54:11;;;;;;;16.05;11.85;;;;;;;5.80;65.41;96775.97;5074005;28;20066;-45
2022/02/09 17:18:47;;;;;;;16.75;11.45;;;;;;;4.87;69.01;96797.44;5070584;28;20403;-45
2022/02/09 17:21:13;;;;;;;18.60;10.95;;;;;;;4.64;70.38;96802.09;5072858;28;20093;-46
2022/02/09 17:23:38;;;;;;;16.52;12.23;;;;;;;4.56;70.26;96805.06;5053519;28;20040;-47
2022/02/09 17:26:04;;;;;;;13.80;12.07;;;;;;;4.46;70.86;96809.06;5070932;28;20025;-46
2022/02/09 17:28:30;;;;;;;20.35;11.88;;;;;;;4.37;71.22;96809.53;5075812;28;20051;-49
2022/02/09 17:36:11;;;;;;;17.23;12.05;;;;;;;4.08;73.08;96823.06;5078071;28;20137;-59
2022/02/09 17:57:17;;;;;;;15.48;11.95;;;;;;;3.49;74.14;96867.44;5082282;28;20530;-56
2022/02/09 17:59:56;;;;;;;18.45;12.23;;;;;;;3.38;75.71;96864.50;5075421;28;20036;-55
2022/02/09 18:02:21;;;;;;;21.42;12.00;;;;;;;3.26;76.38;96871.91;5074339;28;20119;-55
2022/02/09 18:04:46;;;;;;;20.20;12.88;;;;;;;3.14;77.31;96870.69;5073742;28;20108;-55
2022/02/09 18:07:17;;;;;;;16.80;13.23;;;;;;;3.08;77.44;96870.97;5054415;28;20032;-56
2022/02/09 18:09:46;;;;;;;16.33;9.25;;;;;;;3.07;77.56;96868.44;5076604;28;20037;-53
2022/02/09 18:12:28;;;;;;;12.70;10.73;;;;;;;3.01;77.60;96875.59;5076660;28;20052;-52
2022/02/09 18:15:46;;;;;;;16.42;11.02;;;;;;;2.93;78.29;96877.69;5071140;28;20114;-56
2022/02/09 18:31:07;;;;;;;29.38;23.10;;;;;;;2.62;78.75;96883.34;5075220;28;20045;-56
2022/02/09 18:44:30;;;;;;;27.83;23.35;;;;;;;2.27;80.49;96871.69;5072339;28;20034;-57
2022/02/09 18:47:41;;;;;;;31.83;24.52;;;;;;;2.25;80.75;96870.91;5071208;28;20388;-56
2022/02/09 19:03:30;;;;;;;38.85;26.55;;;;;;;1.80;82.84;96870.09;5072666;28;20155;-57
2022/02/09 19:06:00;;;;;;;37.33;26.55;;;;;;;1.79;83.19;96870.13;5077596;28;20078;-56
2022/02/09 19:14:20;;;;;;;36.78;26.77;;;;;;;1.69;81.81;96867.88;5074436;28;20085;-56
2022/02/09 19:16:52;;;;;;;34.90;23.73;;;;;;;1.70;82.55;96869.59;5073868;28;20116;-57
2022/02/09 19:30:12;;;;;;;32.25;24.25;;;;;;;1.42;83.95;96864.56;5074773;28;20633;-54
2022/02/09 19:45:58;;;;;;;28.90;22.92;;;;;;;1.34;84.77;96870.03;5068547;28;20032;-56
2022/02/09 19:48:27;;;;;;;;;;;;;;;1.33;84.71;96868.34;5070899;28;20016;-54
2022/02/09 19:56:18;;;;;;;30.20;23.77;;;;;;;1.12;84.95;96876.00;5074324;28;20043;-54
2022/02/09 20:01:16;;;;;;;32.72;24.40;;;;;;;1.05;85.40;96871.09;5077125;28;20054;-55
2022/02/09 20:03:41;;;;;;;27.13;21.48;;;;;;;0.96;86.50;96870.50;5076209;28;20111;-56
2022/02/09 20:06:07;;;;;;;32.38;22.38;;;;;;;0.92;85.67;96863.75;5072379;28;20150;-54
2022/02/09 20:08:37;;;;;;;31.85;24.38;;;;;;;0.95;85.24;96870.56;5072590;28;20029;-55
2022/02/09 20:11:04;;;;;;;33.65;24.30;;;;;;;0.92;85.23;96875.84;5070600;28;20021;-56
2022/02/09 20:13:29;;;;;;;30.05;21.85;;;;;;;0.89;86.41;96874.22;5071965;28;20085;-56
2022/02/09 20:15:55;;;;;;;29.65;22.67;;;;;;;0.87;86.09;96867.41;5072983;28;20025;-55
2022/02/09 20:18:20;;;;;;;41.08;29.10;;;;;;;0.93;86.60;96872.34;5077113;28;20049;-55
2022/02/09 20:20:46;;;;;;;60.97;34.28;;;;;;;0.94;85.86;96874.06;5074207;28;20025;-56
2022/02/09 20:23:12;;;;;;;59.33;35.15;;;;;;;0.88;85.50;96872.50;5071977;28;20028;-57
2022/02/09 20:25:38;;;;;;;59.67;37.20;;;;;;;0.83;86.24;96872.69;5068754;28;20017;-56
2022/02/09 20:28:05;;;;;;;80.47;46.28;;;;;;;0.80;85.26;96878.00;5075976;28;20035;-55
2022/02/09 20:30:37;;;;;;;106.97;57.72;;;;;;;0.78;86.04;96874.59;5070410;28;20214;-56
2022/02/09 20:33:07;;;;;;;103.03;58.00;;;;;;;0.75;87.11;96877.28;5072613;28;20060;-56
2022/02/09 20:35:33;;;;;;;85.50;50.42;;;;;;;0.68;87.10;96874.06;5071566;28;20065;-58
2022/02/09 20:37:58;;;;;;;78.03;46.53;;;;;;;0.64;87.00;96874.22;5070150;28;20190;-56
2022/02/09 20:40:35;;;;;;;67.78;41.28;;;;;;;0.60;87.29;96877.81;5069440;28;20021;-55
2022/02/09 20:43:03;;;;;;;65.32;40.17;;;;;;;0.61;86.86;96867.38;5072928;28;20028;-56
2022/02/09 20:45:46;;;;;;;71.38;40.22;;;;;;;0.60;87.49;96864.84;5070419;28;20404;-55
2022/02/09 20:48:15;;;;;;;68.30;37.65;;;;;;;0.54;86.52;96861.53;5067659;28;20151;-55
2022/02/09 20:50:41;;;;;;;68.60;39.90;;;;;;;0.49;86.74;96863.44;5068036;28;20020;-55
2022/02/09 20:53:08;;;;;;;66.10;36.67;;;;;;;0.47;86.59;96870.44;5069241;28;20024;-55
2022/02/09 20:55:34;;;;;;;70.65;44.83;;;;;;;0.48;86.71;96869.53;5070177;28;20028;-56
2022/02/09 20:58:00;;;;;;;71.72;41.28;;;;;;;0.47;87.49;96872.19;5070813;28;20024;-53
2022/02/09 21:00:45;;;;;;;58.45;40.55;;;;;;;0.46;87.68;96878.28;5073237;28;20403;-57
2022/02/09 21:16:21;;;;;;;99.68;57.78;;;;;;;0.48;88.17;96879.91;5066699;28;20039;-54
2022/02/09 21:24:32;;;;;;;51.13;34.90;;;;;;;0.46;87.33;96892.06;5009106;28;20382;-55
2022/02/09 21:54:09;;;;;;;81.47;50.30;;;;;;;-0.01;88.99;96877.13;5055397;28;20028;-54
2022/02/09 22:28:11;;;;;;;64.80;41.05;;;;;;;-0.35;91.22;96860.06;5060967;28;20067;-55
2022/02/09 22:50:06;;;;;;;41.85;29.10;;;;;;;-0.45;92.32;96859.47;5061140;28;20035;-54
2022/02/09 22:55:26;;;;;;;60.00;35.05;;;;;;;-0.37;91.10;96857.50;5059948;28;20039;-55
2022/02/09 22:58:02;;;;;;;53.47;33.03;;;;;;;-0.39;91.11;96853.28;5058236;28;20098;-54
2022/02/09 23:01:34;;;;;;;52.28;32.40;;;;;;;-0.42;91.96;96853.38;5057800;28;20024;-54
2022/02/09 23:03:46;;;;;;;;;;;;;;;-0.49;91.38;96853.53;5043859;28;20078;-55
